sensor_id;sensor_type;location;lat;lon;timestamp;P1;durP1;ratioP1;P2;durP2;ratioP2
25982;SDS011;13773;48.868;10.730;2023-04-24T00:00:10;1.83;;;1.67;;
25982;SDS011;13773;48.868;10.730;2023-04-24T00:02:40;2.03;;;1.80;;
25982;SDS011;13773;48.868;10.730;2023-04-24T00:05:11;2.23;;;1.70;;
25982;SDS011;13773;48.868;10.730;2023-04-24T00:07:38;2.53;;;1.73;;
25982;SDS011;13773;48.868;10.730;2023-04-24T00:10:05;2.97;;;1.70;;
25982;SDS011;13773;48.868;10.730;2023-04-24T00:12:31;2.37;;;2.03;;
25982;SDS011;13773;48.868;10.730;2023-04-24T00:14:57;3.00;;;1.90;;
25982;SDS011;13773;48.868;10.730;2023-04-24T00:17:23;3.60;;;1.90;;
25982;SDS011;13773;48.868;10.730;2023-04-24T00:19:49;2.53;;;2.07;;
25982;SDS011;13773;48.868;10.730;2023-04-24T00:22:23;2.00;;;1.60;;
25982;SDS011;13773;48.868;10.730;2023-04-24T00:24:53;1.80;;;1.70;;
25982;SDS011;13773;48.868;10.730;2023-04-24T00:27:19;1.70;;;1.53;;
25982;SDS011;13773;48.868;10.730;2023-04-24T00:29:45;2.10;;;1.90;;
25982;SDS011;13773;48.868;10.730;2023-04-24T00:32:11;2.90;;;2.40;;
25982;SDS011;13773;48.868;10.730;2023-04-24T00:34:36;3.63;;;2.07;;
25982;SDS011;13773;48.868;10.730;2023-04-24T00:37:02;3.20;;;2.70;;
25982;SDS011;13773;48.868;10.730;2023-04-24T00:39:28;3.23;;;2.93;;
25982;SDS011;13773;48.868;10.730;2023-04-24T00:41:54;4.97;;;3.60;;
25982;SDS011;13773;48.868;10.730;2023-04-24T00:44:20;4.40;;;3.40;;
25982;SDS011;13773;48.868;10.730;2023-04-24T00:46:46;4.50;;;4.10;;
25982;SDS011;13773;48.868;10.730;2023-04-24T00:49:16;4.47;;;3.80;;
25982;SDS011;13773;48.868;10.730;2023-04-24T00:51:43;4.83;;;4.13;;
25982;SDS011;13773;48.868;10.730;2023-04-24T00:54:10;6.57;;;4.10;;
25982;SDS011;13773;48.868;10.730;2023-04-24T00:56:37;6.37;;;4.60;;
25982;SDS011;13773;48.868;10.730;2023-04-24T00:59:03;7.07;;;4.80;;
25982;SDS011;13773;48.868;10.730;2023-04-24T01:01:30;6.93;;;4.67;;
25982;SDS011;13773;48.868;10.730;2023-04-24T01:03:55;6.07;;;4.60;;
25982;SDS011;13773;48.868;10.730;2023-04-24T01:06:23;4.67;;;3.83;;
25982;SDS011;13773;48.868;10.730;2023-04-24T01:08:53;5.10;;;3.90;;
25982;SDS011;13773;48.868;10.730;2023-04-24T01:11:20;3.87;;;3.47;;
25982;SDS011;13773;48.868;10.730;2023-04-24T01:13:47;4.90;;;4.23;;
25982;SDS011;13773;48.868;10.730;2023-04-24T01:16:16;4.17;;;3.50;;
25982;SDS011;13773;48.868;10.730;2023-04-24T01:18:42;4.10;;;2.97;;
25982;SDS011;13773;48.868;10.730;2023-04-24T01:21:09;3.10;;;2.80;;
25982;SDS011;13773;48.868;10.730;2023-04-24T01:23:39;3.33;;;3.00;;
25982;SDS011;13773;48.868;10.730;2023-04-24T01:26:05;3.17;;;2.93;;
25982;SDS011;13773;48.868;10.730;2023-04-24T01:28:31;3.50;;;2.13;;
25982;SDS011;13773;48.868;10.730;2023-04-24T01:30:57;2.67;;;2.47;;
25982;SDS011;13773;48.868;10.730;2023-04-24T01:33:23;3.10;;;2.60;;
25982;SDS011;13773;48.868;10.730;2023-04-24T01:35:48;3.50;;;2.40;;
25982;SDS011;13773;48.868;10.730;2023-04-24T01:38:15;2.57;;;2.20;;
25982;SDS011;13773;48.868;10.730;2023-04-24T01:40:41;3.90;;;2.20;;
25982;SDS011;13773;48.868;10.730;2023-04-24T01:43:06;2.63;;;2.33;;
25982;SDS011;13773;48.868;10.730;2023-04-24T01:45:32;2.40;;;2.20;;
25982;SDS011;13773;48.868;10.730;2023-04-24T01:47:58;3.57;;;2.93;;
25982;SDS011;13773;48.868;10.730;2023-04-24T01:50:25;2.93;;;2.23;;
25982;SDS011;13773;48.868;10.730;2023-04-24T01:52:51;3.10;;;2.40;;
25982;SDS011;13773;48.868;10.730;2023-04-24T01:55:16;4.37;;;2.70;;
25982;SDS011;13773;48.868;10.730;2023-04-24T01:57:42;2.90;;;2.60;;
25982;SDS011;13773;48.868;10.730;2023-04-24T02:00:08;3.53;;;2.50;;
25982;SDS011;13773;48.868;10.730;2023-04-24T02:02:37;2.87;;;2.63;;
25982;SDS011;13773;48.868;10.730;2023-04-24T02:05:05;2.73;;;2.53;;
25982;SDS011;13773;48.868;10.730;2023-04-24T02:07:32;3.37;;;2.40;;
25982;SDS011;13773;48.868;10.730;2023-04-24T02:09:58;3.33;;;3.03;;
25982;SDS011;13773;48.868;10.730;2023-04-24T02:12:23;2.83;;;2.50;;
25982;SDS011;13773;48.868;10.730;2023-04-24T02:14:49;4.03;;;2.70;;
25982;SDS011;13773;48.868;10.730;2023-04-24T02:17:15;3.03;;;2.73;;
25982;SDS011;13773;48.868;10.730;2023-04-24T02:19:41;2.97;;;2.30;;
25982;SDS011;13773;48.868;10.730;2023-04-24T02:22:07;3.13;;;2.50;;
25982;SDS011;13773;48.868;10.730;2023-04-24T02:24:33;4.80;;;2.63;;
25982;SDS011;13773;48.868;10.730;2023-04-24T02:26:58;2.57;;;2.37;;
25982;SDS011;13773;48.868;10.730;2023-04-24T02:29:25;3.93;;;2.70;;
25982;SDS011;13773;48.868;10.730;2023-04-24T02:31:50;2.60;;;2.40;;
25982;SDS011;13773;48.868;10.730;2023-04-24T02:34:16;3.13;;;2.70;;
25982;SDS011;13773;48.868;10.730;2023-04-24T02:36:42;2.87;;;2.50;;
25982;SDS011;13773;48.868;10.730;2023-04-24T02:39:07;3.13;;;2.80;;
25982;SDS011;13773;48.868;10.730;2023-04-24T02:41:33;2.73;;;2.43;;
25982;SDS011;13773;48.868;10.730;2023-04-24T02:43:59;4.30;;;3.00;;
25982;SDS011;13773;48.868;10.730;2023-04-24T02:46:25;2.80;;;2.50;;
25982;SDS011;13773;48.868;10.730;2023-04-24T02:48:50;2.87;;;2.40;;
25982;SDS011;13773;48.868;10.730;2023-04-24T02:51:16;3.53;;;2.77;;
25982;SDS011;13773;48.868;10.730;2023-04-24T02:53:42;2.87;;;2.53;;
25982;SDS011;13773;48.868;10.730;2023-04-24T02:56:08;3.10;;;2.53;;
25982;SDS011;13773;48.868;10.730;2023-04-24T02:58:33;4.63;;;2.87;;
25982;SDS011;13773;48.868;10.730;2023-04-24T03:01:00;3.37;;;2.60;;
25982;SDS011;13773;48.868;10.730;2023-04-24T03:03:26;3.83;;;3.00;;
25982;SDS011;13773;48.868;10.730;2023-04-24T03:05:51;3.33;;;2.77;;
25982;SDS011;13773;48.868;10.730;2023-04-24T03:08:17;3.17;;;2.67;;
25982;SDS011;13773;48.868;10.730;2023-04-24T03:10:43;3.87;;;3.03;;
25982;SDS011;13773;48.868;10.730;2023-04-24T03:13:09;4.30;;;3.30;;
25982;SDS011;13773;48.868;10.730;2023-04-24T03:15:35;3.77;;;3.37;;
25982;SDS011;13773;48.868;10.730;2023-04-24T03:18:00;3.50;;;3.20;;
25982;SDS011;13773;48.868;10.730;2023-04-24T03:20:27;3.90;;;3.10;;
25982;SDS011;13773;48.868;10.730;2023-04-24T03:22:53;4.47;;;3.43;;
25982;SDS011;13773;48.868;10.730;2023-04-24T03:25:19;3.40;;;2.90;;
25982;SDS011;13773;48.868;10.730;2023-04-24T03:27:45;3.13;;;2.63;;
25982;SDS011;13773;48.868;10.730;2023-04-24T03:30:11;2.80;;;2.60;;
25982;SDS011;13773;48.868;10.730;2023-04-24T03:32:37;2.97;;;2.77;;
25982;SDS011;13773;48.868;10.730;2023-04-24T03:35:04;3.53;;;2.87;;
25982;SDS011;13773;48.868;10.730;2023-04-24T03:37:32;2.97;;;2.60;;
25982;SDS011;13773;48.868;10.730;2023-04-24T03:39:57;4.53;;;3.23;;
25982;SDS011;13773;48.868;10.730;2023-04-24T03:42:23;3.57;;;3.13;;
25982;SDS011;13773;48.868;10.730;2023-04-24T03:44:49;3.47;;;3.10;;
25982;SDS011;13773;48.868;10.730;2023-04-24T03:47:15;3.20;;;2.70;;
25982;SDS011;13773;48.868;10.730;2023-04-24T03:49:40;3.23;;;2.70;;
25982;SDS011;13773;48.868;10.730;2023-04-24T03:52:06;3.53;;;3.03;;
25982;SDS011;13773;48.868;10.730;2023-04-24T03:54:32;3.10;;;2.80;;
25982;SDS011;13773;48.868;10.730;2023-04-24T03:56:57;3.33;;;3.00;;
25982;SDS011;13773;48.868;10.730;2023-04-24T03:59:23;4.50;;;3.20;;
25982;SDS011;13773;48.868;10.730;2023-04-24T04:01:49;3.67;;;3.00;;
25982;SDS011;13773;48.868;10.730;2023-04-24T04:04:15;4.83;;;3.17;;
25982;SDS011;13773;48.868;10.730;2023-04-24T04:06:40;3.27;;;2.67;;
25982;SDS011;13773;48.868;10.730;2023-04-24T04:09:07;3.87;;;2.90;;
25982;SDS011;13773;48.868;10.730;2023-04-24T04:11:33;4.50;;;3.50;;
25982;SDS011;13773;48.868;10.730;2023-04-24T04:14:00;4.17;;;2.90;;
25982;SDS011;13773;48.868;10.730;2023-04-24T04:16:26;3.50;;;3.20;;
25982;SDS011;13773;48.868;10.730;2023-04-24T04:18:52;4.53;;;3.07;;
25982;SDS011;13773;48.868;10.730;2023-04-24T04:21:17;7.63;;;3.90;;
25982;SDS011;13773;48.868;10.730;2023-04-24T04:23:43;5.07;;;3.50;;
25982;SDS011;13773;48.868;10.730;2023-04-24T04:26:08;7.07;;;3.83;;
25982;SDS011;13773;48.868;10.730;2023-04-24T04:28:34;5.83;;;3.70;;
25982;SDS011;13773;48.868;10.730;2023-04-24T04:31:01;5.10;;;3.93;;
25982;SDS011;13773;48.868;10.730;2023-04-24T04:33:26;4.17;;;3.77;;
25982;SDS011;13773;48.868;10.730;2023-04-24T04:35:52;5.57;;;4.43;;
25982;SDS011;13773;48.868;10.730;2023-04-24T04:38:18;6.67;;;5.03;;
25982;SDS011;13773;48.868;10.730;2023-04-24T04:40:45;5.37;;;4.23;;
25982;SDS011;13773;48.868;10.730;2023-04-24T04:43:11;6.90;;;4.73;;
25982;SDS011;13773;48.868;10.730;2023-04-24T04:45:38;6.57;;;5.20;;
25982;SDS011;13773;48.868;10.730;2023-04-24T04:48:05;6.23;;;5.33;;
25982;SDS011;13773;48.868;10.730;2023-04-24T04:50:33;6.90;;;4.93;;
25982;SDS011;13773;48.868;10.730;2023-04-24T04:52:59;7.43;;;5.50;;
25982;SDS011;13773;48.868;10.730;2023-04-24T04:55:25;5.27;;;4.77;;
25982;SDS011;13773;48.868;10.730;2023-04-24T04:57:51;6.30;;;4.93;;
25982;SDS011;13773;48.868;10.730;2023-04-24T05:00:17;5.67;;;5.00;;
25982;SDS011;13773;48.868;10.730;2023-04-24T05:02:44;5.37;;;4.87;;
25982;SDS011;13773;48.868;10.730;2023-04-24T05:05:09;4.80;;;4.30;;
25982;SDS011;13773;48.868;10.730;2023-04-24T05:07:35;5.10;;;4.33;;
25982;SDS011;13773;48.868;10.730;2023-04-24T05:10:01;5.47;;;4.77;;
25982;SDS011;13773;48.868;10.730;2023-04-24T05:12:27;5.40;;;3.97;;
25982;SDS011;13773;48.868;10.730;2023-04-24T05:14:53;4.67;;;4.17;;
25982;SDS011;13773;48.868;10.730;2023-04-24T05:17:19;4.30;;;3.90;;
25982;SDS011;13773;48.868;10.730;2023-04-24T05:19:45;4.20;;;3.80;;
25982;SDS011;13773;48.868;10.730;2023-04-24T05:22:11;4.93;;;3.50;;
25982;SDS011;13773;48.868;10.730;2023-04-24T05:24:37;4.87;;;3.70;;
25982;SDS011;13773;48.868;10.730;2023-04-24T05:27:03;4.37;;;3.53;;
25982;SDS011;13773;48.868;10.730;2023-04-24T05:29:29;4.00;;;3.60;;
25982;SDS011;13773;48.868;10.730;2023-04-24T05:31:56;3.97;;;3.53;;
25982;SDS011;13773;48.868;10.730;2023-04-24T05:34:22;4.47;;;4.07;;
25982;SDS011;13773;48.868;10.730;2023-04-24T05:36:48;4.67;;;3.70;;
25982;SDS011;13773;48.868;10.730;2023-04-24T05:39:15;4.20;;;3.80;;
25982;SDS011;13773;48.868;10.730;2023-04-24T05:41:41;4.90;;;3.83;;
25982;SDS011;13773;48.868;10.730;2023-04-24T05:44:07;5.87;;;4.10;;
25982;SDS011;13773;48.868;10.730;2023-04-24T05:46:33;6.27;;;4.63;;
25982;SDS011;13773;48.868;10.730;2023-04-24T05:48:58;4.93;;;4.43;;
25982;SDS011;13773;48.868;10.730;2023-04-24T05:51:24;4.27;;;3.97;;
25982;SDS011;13773;48.868;10.730;2023-04-24T05:53:51;7.03;;;4.63;;
25982;SDS011;13773;48.868;10.730;2023-04-24T05:56:16;5.67;;;3.97;;
25982;SDS011;13773;48.868;10.730;2023-04-24T05:58:43;4.80;;;4.30;;
25982;SDS011;13773;48.868;10.730;2023-04-24T06:01:08;5.77;;;5.27;;
25982;SDS011;13773;48.868;10.730;2023-04-24T06:03:34;5.30;;;4.80;;
25982;SDS011;13773;48.868;10.730;2023-04-24T06:06:00;4.93;;;4.40;;
25982;SDS011;13773;48.868;10.730;2023-04-24T06:08:26;5.47;;;4.97;;
25982;SDS011;13773;48.868;10.730;2023-04-24T06:10:51;4.87;;;4.47;;
25982;SDS011;13773;48.868;10.730;2023-04-24T06:13:17;4.83;;;4.40;;
25982;SDS011;13773;48.868;10.730;2023-04-24T06:15:43;5.00;;;4.43;;
25982;SDS011;13773;48.868;10.730;2023-04-24T06:18:09;5.07;;;4.30;;
25982;SDS011;13773;48.868;10.730;2023-04-24T06:20:37;5.20;;;4.30;;
25982;SDS011;13773;48.868;10.730;2023-04-24T06:23:04;4.73;;;4.33;;
25982;SDS011;13773;48.868;10.730;2023-04-24T06:25:29;5.87;;;4.40;;
25982;SDS011;13773;48.868;10.730;2023-04-24T06:27:55;4.90;;;4.30;;
25982;SDS011;13773;48.868;10.730;2023-04-24T06:30:22;3.77;;;3.43;;
25982;SDS011;13773;48.868;10.730;2023-04-24T06:32:47;4.20;;;3.80;;
25982;SDS011;13773;48.868;10.730;2023-04-24T06:35:13;4.67;;;4.27;;
25982;SDS011;13773;48.868;10.730;2023-04-24T06:37:39;5.03;;;3.73;;
25982;SDS011;13773;48.868;10.730;2023-04-24T06:40:06;3.40;;;3.10;;
25982;SDS011;13773;48.868;10.730;2023-04-24T06:42:32;3.90;;;2.43;;
25982;SDS011;13773;48.868;10.730;2023-04-24T06:44:59;3.63;;;2.60;;
25982;SDS011;13773;48.868;10.730;2023-04-24T06:47:25;2.50;;;1.60;;
25982;SDS011;13773;48.868;10.730;2023-04-24T06:49:51;1.80;;;1.60;;
25982;SDS011;13773;48.868;10.730;2023-04-24T06:52:17;3.23;;;2.00;;
25982;SDS011;13773;48.868;10.730;2023-04-24T06:54:43;4.80;;;2.27;;
25982;SDS011;13773;48.868;10.730;2023-04-24T06:57:09;6.40;;;2.20;;
25982;SDS011;13773;48.868;10.730;2023-04-24T06:59:35;1.83;;;1.67;;
25982;SDS011;13773;48.868;10.730;2023-04-24T07:02:01;3.50;;;2.20;;
25982;SDS011;13773;48.868;10.730;2023-04-24T07:04:28;2.23;;;2.03;;
25982;SDS011;13773;48.868;10.730;2023-04-24T07:06:55;2.00;;;1.80;;
25982;SDS011;13773;48.868;10.730;2023-04-24T07:09:21;2.20;;;1.90;;
25982;SDS011;13773;48.868;10.730;2023-04-24T07:11:48;2.07;;;1.87;;
25982;SDS011;13773;48.868;10.730;2023-04-24T07:14:15;2.57;;;1.80;;
25982;SDS011;13773;48.868;10.730;2023-04-24T07:16:41;2.60;;;1.63;;
25982;SDS011;13773;48.868;10.730;2023-04-24T07:19:07;1.70;;;1.47;;
25982;SDS011;13773;48.868;10.730;2023-04-24T07:21:33;1.70;;;1.60;;
25982;SDS011;13773;48.868;10.730;2023-04-24T07:23:58;3.13;;;1.90;;
25982;SDS011;13773;48.868;10.730;2023-04-24T07:26:25;2.83;;;1.60;;
25982;SDS011;13773;48.868;10.730;2023-04-24T07:28:51;1.70;;;1.60;;
25982;SDS011;13773;48.868;10.730;2023-04-24T07:31:18;2.07;;;1.60;;
25982;SDS011;13773;48.868;10.730;2023-04-24T07:33:43;3.60;;;1.77;;
25982;SDS011;13773;48.868;10.730;2023-04-24T07:36:09;2.20;;;1.80;;
25982;SDS011;13773;48.868;10.730;2023-04-24T07:38:40;3.90;;;3.00;;
25982;SDS011;13773;48.868;10.730;2023-04-24T07:41:07;4.40;;;2.13;;
25982;SDS011;13773;48.868;10.730;2023-04-24T07:43:32;5.73;;;2.30;;
25982;SDS011;13773;48.868;10.730;2023-04-24T07:45:58;3.10;;;2.13;;
25982;SDS011;13773;48.868;10.730;2023-04-24T07:48:24;2.10;;;1.90;;
25982;SDS011;13773;48.868;10.730;2023-04-24T07:50:51;3.50;;;2.47;;
25982;SDS011;13773;48.868;10.730;2023-04-24T07:53:17;2.33;;;2.10;;
25982;SDS011;13773;48.868;10.730;2023-04-24T07:55:43;1.83;;;1.73;;
25982;SDS011;13773;48.868;10.730;2023-04-24T07:58:09;1.67;;;1.57;;
25982;SDS011;13773;48.868;10.730;2023-04-24T08:00:34;2.40;;;2.10;;
25982;SDS011;13773;48.868;10.730;2023-04-24T08:03:00;2.13;;;1.93;;
25982;SDS011;13773;48.868;10.730;2023-04-24T08:05:26;2.20;;;2.00;;
25982;SDS011;13773;48.868;10.730;2023-04-24T08:07:53;2.27;;;2.07;;
25982;SDS011;13773;48.868;10.730;2023-04-24T08:10:20;2.03;;;1.83;;
25982;SDS011;13773;48.868;10.730;2023-04-24T08:12:47;2.13;;;1.93;;
25982;SDS011;13773;48.868;10.730;2023-04-24T08:15:13;2.03;;;1.80;;
25982;SDS011;13773;48.868;10.730;2023-04-24T08:17:39;3.30;;;2.13;;
25982;SDS011;13773;48.868;10.730;2023-04-24T08:20:05;2.40;;;2.00;;
25982;SDS011;13773;48.868;10.730;2023-04-24T08:22:35;3.47;;;2.03;;
25982;SDS011;13773;48.868;10.730;2023-04-24T08:25:01;2.40;;;2.20;;
25982;SDS011;13773;48.868;10.730;2023-04-24T08:27:26;1.97;;;1.87;;
25982;SDS011;13773;48.868;10.730;2023-04-24T08:29:53;2.47;;;2.27;;
25982;SDS011;13773;48.868;10.730;2023-04-24T08:32:19;2.97;;;2.07;;
25982;SDS011;13773;48.868;10.730;2023-04-24T08:34:45;2.30;;;2.03;;
25982;SDS011;13773;48.868;10.730;2023-04-24T08:37:10;2.20;;;1.93;;
25982;SDS011;13773;48.868;10.730;2023-04-24T08:39:37;3.60;;;2.30;;
25982;SDS011;13773;48.868;10.730;2023-04-24T08:42:03;2.80;;;2.13;;
25982;SDS011;13773;48.868;10.730;2023-04-24T08:44:32;2.87;;;2.63;;
25982;SDS011;13773;48.868;10.730;2023-04-24T08:46:59;2.53;;;2.10;;
25982;SDS011;13773;48.868;10.730;2023-04-24T08:49:27;4.13;;;2.97;;
25982;SDS011;13773;48.868;10.730;2023-04-24T08:51:53;5.30;;;4.10;;
25982;SDS011;13773;48.868;10.730;2023-04-24T08:54:19;4.63;;;3.47;;
25982;SDS011;13773;48.868;10.730;2023-04-24T08:56:46;2.70;;;2.50;;
25982;SDS011;13773;48.868;10.730;2023-04-24T08:59:13;2.73;;;2.20;;
25982;SDS011;13773;48.868;10.730;2023-04-24T09:01:40;3.37;;;2.50;;
25982;SDS011;13773;48.868;10.730;2023-04-24T09:04:07;4.87;;;2.50;;
25982;SDS011;13773;48.868;10.730;2023-04-24T09:06:37;4.20;;;2.07;;
25982;SDS011;13773;48.868;10.730;2023-04-24T09:09:04;3.20;;;1.93;;
25982;SDS011;13773;48.868;10.730;2023-04-24T09:11:30;2.23;;;2.03;;
25982;SDS011;13773;48.868;10.730;2023-04-24T09:13:57;2.10;;;1.90;;
25982;SDS011;13773;48.868;10.730;2023-04-24T09:16:25;2.43;;;2.03;;
25982;SDS011;13773;48.868;10.730;2023-04-24T09:18:51;2.20;;;2.00;;
25982;SDS011;13773;48.868;10.730;2023-04-24T09:21:17;3.40;;;2.10;;
25982;SDS011;13773;48.868;10.730;2023-04-24T09:23:46;2.20;;;2.00;;
25982;SDS011;13773;48.868;10.730;2023-04-24T09:26:12;3.63;;;2.00;;
25982;SDS011;13773;48.868;10.730;2023-04-24T09:28:40;2.93;;;2.20;;
25982;SDS011;13773;48.868;10.730;2023-04-24T09:31:07;3.17;;;2.10;;
25982;SDS011;13773;48.868;10.730;2023-04-24T09:33:34;2.30;;;2.10;;
25982;SDS011;13773;48.868;10.730;2023-04-24T09:36:00;5.43;;;2.80;;
25982;SDS011;13773;48.868;10.730;2023-04-24T09:38:31;4.07;;;1.83;;
25982;SDS011;13773;48.868;10.730;2023-04-24T09:41:01;2.03;;;1.50;;
25982;SDS011;13773;48.868;10.730;2023-04-24T09:43:30;2.10;;;1.23;;
25982;SDS011;13773;48.868;10.730;2023-04-24T09:45:56;1.33;;;1.10;;
25982;SDS011;13773;48.868;10.730;2023-04-24T09:48:30;2.03;;;1.60;;
25982;SDS011;13773;48.868;10.730;2023-04-24T09:51:03;1.40;;;1.30;;
25982;SDS011;13773;48.868;10.730;2023-04-24T09:53:35;1.67;;;1.53;;
25982;SDS011;13773;48.868;10.730;2023-04-24T09:56:10;1.57;;;1.40;;
25982;SDS011;13773;48.868;10.730;2023-04-24T09:58:39;1.70;;;1.60;;
25982;SDS011;13773;48.868;10.730;2023-04-24T10:01:05;1.77;;;1.67;;
25982;SDS011;13773;48.868;10.730;2023-04-24T10:03:32;1.77;;;1.50;;
25982;SDS011;13773;48.868;10.730;2023-04-24T10:05:59;4.00;;;2.40;;
25982;SDS011;13773;48.868;10.730;2023-04-24T10:08:34;1.87;;;1.50;;
25982;SDS011;13773;48.868;10.730;2023-04-24T10:11:01;1.93;;;1.70;;
25982;SDS011;13773;48.868;10.730;2023-04-24T10:13:27;1.77;;;1.57;;
25982;SDS011;13773;48.868;10.730;2023-04-24T10:15:53;2.07;;;1.67;;
25982;SDS011;13773;48.868;10.730;2023-04-24T10:18:21;2.20;;;2.00;;
25982;SDS011;13773;48.868;10.730;2023-04-24T10:20:48;4.67;;;2.50;;
25982;SDS011;13773;48.868;10.730;2023-04-24T10:23:14;2.30;;;2.10;;
25982;SDS011;13773;48.868;10.730;2023-04-24T10:25:41;2.73;;;1.67;;
25982;SDS011;13773;48.868;10.730;2023-04-24T10:28:07;2.40;;;1.70;;
25982;SDS011;13773;48.868;10.730;2023-04-24T10:30:35;2.40;;;1.60;;
25982;SDS011;13773;48.868;10.730;2023-04-24T10:33:03;1.90;;;1.50;;
25982;SDS011;13773;48.868;10.730;2023-04-24T10:35:31;1.87;;;1.70;;
25982;SDS011;13773;48.868;10.730;2023-04-24T10:38:08;2.03;;;1.40;;
25982;SDS011;13773;48.868;10.730;2023-04-24T10:40:37;1.50;;;1.40;;
25982;SDS011;13773;48.868;10.730;2023-04-24T10:43:06;1.83;;;1.50;;
25982;SDS011;13773;48.868;10.730;2023-04-24T10:45:34;1.97;;;1.70;;
25982;SDS011;13773;48.868;10.730;2023-04-24T10:50:48;2.77;;;1.60;;
25982;SDS011;13773;48.868;10.730;2023-04-24T10:53:21;3.00;;;1.63;;
25982;SDS011;13773;48.868;10.730;2023-04-24T10:55:51;1.73;;;1.47;;
25982;SDS011;13773;48.868;10.730;2023-04-24T10:58:23;1.47;;;1.37;;
25982;SDS011;13773;48.868;10.730;2023-04-24T11:01:00;2.10;;;1.90;;
25982;SDS011;13773;48.868;10.730;2023-04-24T11:03:27;4.13;;;2.10;;
25982;SDS011;13773;48.868;10.730;2023-04-24T11:05:59;1.60;;;1.50;;
25982;SDS011;13773;48.868;10.730;2023-04-24T11:08:26;3.50;;;1.40;;
25982;SDS011;13773;48.868;10.730;2023-04-24T11:11:02;1.97;;;1.40;;
25982;SDS011;13773;48.868;10.730;2023-04-24T11:21:48;1.57;;;1.47;;
25982;SDS011;13773;48.868;10.730;2023-04-24T11:32:17;3.50;;;1.83;;
25982;SDS011;13773;48.868;10.730;2023-04-24T11:34:45;1.90;;;1.50;;
25982;SDS011;13773;48.868;10.730;2023-04-24T11:37:12;1.37;;;1.27;;
25982;SDS011;13773;48.868;10.730;2023-04-24T11:39:39;1.53;;;1.30;;
25982;SDS011;13773;48.868;10.730;2023-04-24T11:42:06;1.77;;;1.30;;
25982;SDS011;13773;48.868;10.730;2023-04-24T11:44:33;1.33;;;1.13;;
25982;SDS011;13773;48.868;10.730;2023-04-24T11:47:02;2.67;;;1.30;;
25982;SDS011;13773;48.868;10.730;2023-04-24T11:49:32;1.30;;;1.20;;
25982;SDS011;13773;48.868;10.730;2023-04-24T11:51:57;2.27;;;1.50;;
25982;SDS011;13773;48.868;10.730;2023-04-24T11:54:25;2.73;;;1.30;;
25982;SDS011;13773;48.868;10.730;2023-04-24T11:56:51;2.40;;;1.50;;
25982;SDS011;13773;48.868;10.730;2023-04-24T11:59:17;1.63;;;1.40;;
25982;SDS011;13773;48.868;10.730;2023-04-24T12:01:43;1.40;;;1.13;;
25982;SDS011;13773;48.868;10.730;2023-04-24T12:04:10;1.37;;;1.20;;
25982;SDS011;13773;48.868;10.730;2023-04-24T12:06:36;2.40;;;1.30;;
25982;SDS011;13773;48.868;10.730;2023-04-24T12:09:02;1.30;;;1.20;;
25982;SDS011;13773;48.868;10.730;2023-04-24T12:11:28;1.47;;;1.00;;
25982;SDS011;13773;48.868;10.730;2023-04-24T12:13:54;1.00;;;1.00;;
25982;SDS011;13773;48.868;10.730;2023-04-24T12:16:19;2.50;;;1.30;;
25982;SDS011;13773;48.868;10.730;2023-04-24T12:18:45;2.00;;;1.30;;
25982;SDS011;13773;48.868;10.730;2023-04-24T12:21:21;1.43;;;1.30;;
25982;SDS011;13773;48.868;10.730;2023-04-24T12:23:48;2.70;;;1.20;;
25982;SDS011;13773;48.868;10.730;2023-04-24T12:26:16;1.50;;;1.20;;
25982;SDS011;13773;48.868;10.730;2023-04-24T12:28:45;1.30;;;1.20;;
25982;SDS011;13773;48.868;10.730;2023-04-24T12:31:13;1.73;;;1.13;;
25982;SDS011;13773;48.868;10.730;2023-04-24T12:33:38;2.40;;;1.20;;
25982;SDS011;13773;48.868;10.730;2023-04-24T12:36:04;1.20;;;1.10;;
25982;SDS011;13773;48.868;10.730;2023-04-24T12:38:31;1.43;;;1.33;;
25982;SDS011;13773;48.868;10.730;2023-04-24T12:41:08;3.33;;;1.40;;
25982;SDS011;13773;48.868;10.730;2023-04-24T12:43:36;1.43;;;1.30;;
25982;SDS011;13773;48.868;10.730;2023-04-24T12:46:02;1.83;;;1.43;;
25982;SDS011;13773;48.868;10.730;2023-04-24T12:48:28;2.10;;;1.53;;
25982;SDS011;13773;48.868;10.730;2023-04-24T12:50:56;1.77;;;1.20;;
25982;SDS011;13773;48.868;10.730;2023-04-24T12:53:25;2.33;;;1.50;;
25982;SDS011;13773;48.868;10.730;2023-04-24T12:55:51;1.50;;;1.40;;
25982;SDS011;13773;48.868;10.730;2023-04-24T12:58:19;1.23;;;1.13;;
25982;SDS011;13773;48.868;10.730;2023-04-24T13:00:45;1.40;;;1.23;;
25982;SDS011;13773;48.868;10.730;2023-04-24T13:03:11;1.47;;;1.33;;
25982;SDS011;13773;48.868;10.730;2023-04-24T13:05:37;2.83;;;1.40;;
25982;SDS011;13773;48.868;10.730;2023-04-24T13:08:03;1.20;;;1.10;;
25982;SDS011;13773;48.868;10.730;2023-04-24T13:10:29;1.50;;;1.40;;
25982;SDS011;13773;48.868;10.730;2023-04-24T13:12:55;1.50;;;1.30;;
25982;SDS011;13773;48.868;10.730;2023-04-24T13:15:21;1.30;;;1.20;;
25982;SDS011;13773;48.868;10.730;2023-04-24T13:17:47;2.83;;;1.60;;
25982;SDS011;13773;48.868;10.730;2023-04-24T13:20:12;1.67;;;1.10;;
25982;SDS011;13773;48.868;10.730;2023-04-24T13:22:38;1.90;;;1.33;;
25982;SDS011;13773;48.868;10.730;2023-04-24T13:25:04;1.60;;;1.20;;
25982;SDS011;13773;48.868;10.730;2023-04-24T13:27:34;1.73;;;1.20;;
25982;SDS011;13773;48.868;10.730;2023-04-24T13:29:59;2.60;;;1.50;;
25982;SDS011;13773;48.868;10.730;2023-04-24T13:32:25;1.33;;;1.20;;
25982;SDS011;13773;48.868;10.730;2023-04-24T13:34:52;1.40;;;1.30;;
25982;SDS011;13773;48.868;10.730;2023-04-24T13:37:18;1.37;;;1.27;;
25982;SDS011;13773;48.868;10.730;2023-04-24T13:39:44;1.70;;;1.40;;
25982;SDS011;13773;48.868;10.730;2023-04-24T13:42:09;2.07;;;1.73;;
25982;SDS011;13773;48.868;10.730;2023-04-24T13:44:35;2.70;;;1.30;;
25982;SDS011;13773;48.868;10.730;2023-04-24T13:47:01;1.60;;;1.50;;
25982;SDS011;13773;48.868;10.730;2023-04-24T13:49:27;2.03;;;1.20;;
25982;SDS011;13773;48.868;10.730;2023-04-24T13:51:54;3.17;;;1.43;;
25982;SDS011;13773;48.868;10.730;2023-04-24T13:54:20;1.40;;;1.30;;
25982;SDS011;13773;48.868;10.730;2023-04-24T13:56:48;1.03;;;1.00;;
25982;SDS011;13773;48.868;10.730;2023-04-24T13:59:14;1.40;;;1.30;;
25982;SDS011;13773;48.868;10.730;2023-04-24T14:01:40;1.50;;;1.40;;
25982;SDS011;13773;48.868;10.730;2023-04-24T14:04:06;2.27;;;1.40;;
25982;SDS011;13773;48.868;10.730;2023-04-24T14:06:31;2.20;;;1.37;;
25982;SDS011;13773;48.868;10.730;2023-04-24T14:08:57;2.33;;;1.70;;
25982;SDS011;13773;48.868;10.730;2023-04-24T14:11:23;1.60;;;1.50;;
25982;SDS011;13773;48.868;10.730;2023-04-24T14:13:49;2.20;;;1.23;;
25982;SDS011;13773;48.868;10.730;2023-04-24T14:16:14;1.60;;;1.33;;
25982;SDS011;13773;48.868;10.730;2023-04-24T14:18:40;2.47;;;1.60;;
25982;SDS011;13773;48.868;10.730;2023-04-24T14:21:06;1.20;;;1.00;;
25982;SDS011;13773;48.868;10.730;2023-04-24T14:23:32;2.33;;;1.50;;
25982;SDS011;13773;48.868;10.730;2023-04-24T14:25:58;3.80;;;2.00;;
25982;SDS011;13773;48.868;10.730;2023-04-24T14:28:24;2.37;;;1.60;;
25982;SDS011;13773;48.868;10.730;2023-04-24T14:30:51;1.70;;;1.60;;
25982;SDS011;13773;48.868;10.730;2023-04-24T14:33:17;1.70;;;1.50;;
25982;SDS011;13773;48.868;10.730;2023-04-24T14:35:43;1.40;;;1.30;;
25982;SDS011;13773;48.868;10.730;2023-04-24T14:38:08;1.23;;;1.13;;
25982;SDS011;13773;48.868;10.730;2023-04-24T14:40:35;1.57;;;1.47;;
25982;SDS011;13773;48.868;10.730;2023-04-24T14:43:01;1.83;;;1.67;;
25982;SDS011;13773;48.868;10.730;2023-04-24T14:45:27;2.13;;;1.50;;
25982;SDS011;13773;48.868;10.730;2023-04-24T14:47:53;2.80;;;1.50;;